Terminal Aerodrome Forecast
Issued by NWS Wakefield, VA

Home | Current Version | Previous Version | Text Only | Print | Product List | Glossary On
Versions: 1 2 3 4 5 6 7 8 9 10 11 12 13 14 15 16
338
FTUS41 KAKQ 132339
TAFECG
TAF
KECG 132339Z 1400/1424 31013KT P6SM SKC
     FM140300 33011KT P6SM SKC
     FM141400 35012KT P6SM SCT250
     FM142000 02009KT P6SM SCT100 OVC250=

USA.gov is the U.S. government's official web portal to all federal, state and local government web resources and services.